Alahan — TCSH9 — position and weather

sailwx.info

Track history (hours):
 
Tides and Currents Weather Stations Pressure Air Temp Water Temp Dewpoint Dewpoint Depression Visibility Wind Speed Wind Dir Waves Ship Positions

Alahan

Last reported at 2017-Dec-13 01:31 UTC. Time now 2017-Dec-16 13:07 UTC.
Position N 40°43' E 029°23'.

Length 104 m; draft 5.7 m.

Type: Ship (hazmat cat C). MMSI: 271042974.

Date/timePositionNaut miles runAvg speedWind from/ knotsBaromVisibWave heightAir tempDewpointWater temp
2017-Dec-13 01:31N 40°43' E 029°23'112.6
2017-Dec-13 01:28N 40°43' E 029°23'2 0.1
2017-Dec-12 05:35N 40°42' E 029°25'0 0.0
2017-Dec-12 05:30N 40°42' E 029°25'2 3.8
2017-Dec-12 04:59N 40°43' E 029°23'2 5.2
2017-Dec-12 04:30N 40°44' E 029°19'4 7.9
2017-Dec-12 04:00N 40°45' E 029°15'4 7.9
2017-Dec-12 03:29N 40°47' E 029°10'4 8.0
2017-Dec-12 03:00N 40°49' E 029°05'611.1
2017-Dec-12 02:28N 40°51' E 028°58'8 1.1
2017-Dec-11 19:26N 40°57' E 028°52'5 8.4
2017-Dec-11 18:48N 40°52' E 028°51'  
2017-Dec-03 03:07N 43°32' E 028°52'213.2
2017-Dec-03 02:56N 43°34' E 028°52'513.0
2017-Dec-03 02:30N 43°40' E 028°51'612.8
2017-Dec-03 02:00N 43°46' E 028°50'  
Track history (hours):
 
Tides and Currents Weather Stations Pressure Air Temp Water Temp Dewpoint Dewpoint Depression Visibility Wind Speed Wind Dir Waves Ship Positions

Alahan

Last reported at 2017-Dec-13 01:31 UTC. Time now 2017-Dec-16 13:07 UTC.
Position N 40°43' E 029°23'.

Length 104 m; draft 5.7 m.

Type: Ship (hazmat cat C). MMSI: 271042974.

Date/timePositionNaut miles runAvg speedWind from/ knotsBaromVisibWave heightAir tempDewpointWater temp
2017-Dec-13 01:31N 40°43' E 029°23'112.6
2017-Dec-13 01:28N 40°43' E 029°23'2 0.1
2017-Dec-12 05:35N 40°42' E 029°25'0 0.0
2017-Dec-12 05:30N 40°42' E 029°25'2 3.8
2017-Dec-12 04:59N 40°43' E 029°23'2 5.2
2017-Dec-12 04:30N 40°44' E 029°19'4 7.9
2017-Dec-12 04:00N 40°45' E 029°15'4 7.9
2017-Dec-12 03:29N 40°47' E 029°10'4 8.0
2017-Dec-12 03:00N 40°49' E 029°05'611.1
2017-Dec-12 02:28N 40°51' E 028°58'8 1.1
2017-Dec-11 19:26N 40°57' E 028°52'5 8.4
2017-Dec-11 18:48N 40°52' E 028°51'  
2017-Dec-03 03:07N 43°32' E 028°52'213.2
2017-Dec-03 02:56N 43°34' E 028°52'513.0
2017-Dec-03 02:30N 43°40' E 028°51'612.8
2017-Dec-03 02:00N 43°46' E 028°50'  

Dump ship's entire track history